Thunder radar more information blitzortung!


Radar de pluja more information rain snow radar


Visita la nostra xarxa de llocs de meteo:

Template documentation
and downloads

And another site



No particular awareness of the weather is required.    There are no Weather-warnings

Pagina Historial Weather Underground text

Diari Resum Novembre 25, 2017 Unitats:  Mètric    Imperial   Tant
« Previous Dia
SegĂźent Dia »
Diari Setmana Mensual Anual Personalitzada
  Maxima: Minima: Media:
Temperatura: -17.8 °C -14.8 °C -11.1 °C
Punt de rosada: -17.8 °C -19.9 °C -15.6 °C
Humitat: Humidity % 49 % 58 %
Wind Speed: 0 km/h 0 km/h 7.2 km/h
RĂ fegues de vent: 0 km/h - -
Vent:- - SW
Pression baro: 0 hPa 34395 hPa -
Precipitacions: 0 mm    
Historical Graphs
 
 
Dades de taula per Novembre 25, 2017
Temps Temperatura Punt de rosada Pression baro Vent Wind Speed RĂ fegues de vent Humitat Rainfall Rate (Hourly)
-17.8 °C -17.8 °C 0 hPa Calm     Humidity % 0 mm
00:00 -12.4 °C -16.2 °C 34395 hPa Calm   5.1 km/h 63 % 0 mm
00:04 -10.6 °C -16.1 °C 34496.6 hPa SW 3.1 km/h   51 % 0 mm
00:10 -12.4 °C -16.2 °C 34395 hPa NNW 5.1 km/h 7.7 km/h 63 % 0 mm
00:20 -12.8 °C -16.3 °C 34395 hPa North 2.6 km/h 5.1 km/h 64 % 0 mm
00:30 -12.6 °C -16.3 °C 34395 hPa NNE 5.1 km/h 7.7 km/h 63 % 0 mm
00:40 -12.4 °C -16.2 °C 34395 hPa SW 2.6 km/h 5.1 km/h 63 % 0 mm
00:50 -12.2 °C -15.9 °C 34395 hPa SW 5.1 km/h 7.7 km/h 63 % 0 mm
01:00 -11.8 °C -15.6 °C 34395 hPa WSW 7.7 km/h 7.7 km/h 63 % 0 mm
01:10 -11.7 °C -15.5 °C 34428.8 hPa WSW 5.1 km/h 5.1 km/h 63 % 0 mm
01:20 -11.9 °C -15.7 °C 34395 hPa Calm   2.6 km/h 63 % 0 mm
01:30 -12.1 °C -15.9 °C 34395 hPa SW 2.6 km/h 5.1 km/h 63 % 0 mm
01:40 -12.2 °C -15.9 °C 34395 hPa WSW 2.6 km/h 5.1 km/h 63 % 0 mm
01:50 -12.1 °C -15.9 °C 34395 hPa WSW 2.6 km/h 5.1 km/h 63 % 0 mm
02:00 -11.8 °C -15.6 °C 34395 hPa WSW 5.1 km/h 7.7 km/h 63 % 0 mm
02:10 -11.7 °C -15.6 °C 34428.8 hPa SW 5.1 km/h 5.1 km/h 62 % 0 mm
08:11 -11.6 °C -15.5 °C 34428.8 hPa WSW 6 km/h 6 km/h 62 % 0 mm
08:12 -11.6 °C -15.5 °C 34428.8 hPa West 6.3 km/h 6.3 km/h 62 % 0 mm
08:13 -11.6 °C -15.5 °C 34428.8 hPa West 6 km/h 6 km/h 62 % 0 mm
08:18 -11.4 °C -15.3 °C 34428.8 hPa West 6 km/h 6 km/h 62 % 0 mm
08:23 -11.2 °C -15.3 °C 34428.8 hPa WNW 3.1 km/h 3.1 km/h 61 % 0 mm
08:28 -11.2 °C -15.3 °C 34428.8 hPa SW 5.6 km/h   61 % 0 mm
08:33 -11.6 °C -15.6 °C 34428.8 hPa West 6 km/h 6 km/h 61 % 0 mm
08:38 -11.6 °C -15.7 °C 34428.8 hPa West 6.8 km/h 6.8 km/h 61 % 0 mm
08:43 -11.3 °C -15.4 °C 34428.8 hPa WSW 9 km/h 9 km/h 61 % 0 mm
08:53 -10.7 °C -14.9 °C 34428.8 hPa West 6.3 km/h 6.3 km/h 60 % 0 mm
08:58 -10.8 °C -14.9 °C 34428.8 hPa SW 6.3 km/h 6.3 km/h 60 % 0 mm
09:03 -11.1 °C -15.3 °C 34462.7 hPa SW 6 km/h 6 km/h 60 % 0 mm
09:08 -11.4 °C -15.6 °C 34462.7 hPa WSW 6.3 km/h 6.3 km/h 60 % 0 mm
09:13 -11.4 °C -15.6 °C 34462.7 hPa WSW 6.8 km/h 6.8 km/h 60 % 0 mm
09:18 -11.3 °C -15.4 °C 34462.7 hPa Calm     61 % 0 mm
09:23 -11.2 °C -15.2 °C 34462.7 hPa WNW 6.3 km/h 6.3 km/h 61 % 0 mm
09:28 -11.1 °C -15.1 °C 34462.7 hPa SW 6.8 km/h 6.8 km/h 61 % 0 mm
09:33 -11.4 °C -15.4 °C 34462.7 hPa ENE 6 km/h 6 km/h 61 % 0 mm
09:38 -11.7 °C -15.7 °C 34462.7 hPa ENE 3.1 km/h 3.1 km/h 61 % 0 mm
09:43 -11.7 °C -15.6 °C 34462.7 hPa ENE 3.1 km/h   62 % 0 mm
09:48 -11.9 °C -15.8 °C 34462.7 hPa ENE 6.8 km/h 6.8 km/h 62 % 0 mm
09:53 -12.1 °C -15.8 °C 34462.7 hPa ENE 9 km/h 9 km/h 63 % 0 mm
09:58 -12.2 °C -15.9 °C 34462.7 hPa ENE 3.1 km/h 3.1 km/h 63 % 0 mm
10:03 -12.2 °C -15.9 °C 34462.7 hPa SW 6 km/h 6 km/h 63 % 0 mm
10:08 -12.4 °C -16.1 °C 34462.7 hPa WSW 9 km/h 9 km/h 63 % 0 mm
10:13 -12.4 °C -16.2 °C 34462.7 hPa WSW 9.3 km/h 9.3 km/h 63 % 0 mm
10:18 -12.3 °C -15.9 °C 34428.8 hPa SW 9 km/h 9 km/h 64 % 0 mm
10:23 -12.2 °C -15.7 °C 34428.8 hPa WSW 6.3 km/h   65 % 0 mm
10:28 -12 °C -15.5 °C 34428.8 hPa West 6 km/h 6 km/h 65 % 0 mm
10:33 -11.5 °C -15.2 °C 34462.7 hPa WNW 3.1 km/h 3.7 km/h 64 % 0 mm
10:43 -10.9 °C -14.8 °C 34462.7 hPa WNW 3.1 km/h   63 % 0 mm
10:48 -11.1 °C -14.7 °C 34462.7 hPa Calm     64 % 0 mm
10:53 -11.2 °C -14.8 °C 34462.7 hPa West 3.7 km/h   64 % 0 mm
10:58 -11.1 °C -14.7 °C 34462.7 hPa WNW 3.1 km/h   64 % 0 mm
11:03 -10.9 °C -14.7 °C 34462.7 hPa SW 6 km/h 6 km/h 63 % 0 mm
11:08 -10.9 °C -14.6 °C 34462.7 hPa SW 9 km/h 9 km/h 64 % 0 mm
11:13 -11 °C -14.8 °C 34462.7 hPa WSW 9 km/h 9 km/h 63 % 0 mm
11:18 -11 °C -14.8 °C 34496.6 hPa SW 6.3 km/h 6.3 km/h 63 % 0 mm
11:23 -10.8 °C -14.7 °C 34496.6 hPa South 9 km/h 9 km/h 62 % 0 mm
11:29 -10.7 °C -14.6 °C 34496.6 hPa South 15 km/h 15 km/h 62 % 0 mm
11:34 -10.6 °C -14.6 °C 34462.7 hPa SW 10.3 km/h 10.3 km/h 62 % 0 mm
11:39 -10.5 °C -14.4 °C 34462.7 hPa West 11.9 km/h 11.9 km/h 62 % 0 mm
11:44 -10.4 °C -14.5 °C 34462.7 hPa WNW 3.1 km/h 3.1 km/h 61 % 0 mm
11:49 -10.3 °C -14.4 °C 34462.7 hPa SW 6 km/h 6 km/h 61 % 0 mm
11:54 -10.2 °C -14.3 °C 34462.7 hPa WNW 5.6 km/h 5.6 km/h 61 % 0 mm
11:59 -10.1 °C -14.3 °C 34462.7 hPa WSW 8.5 km/h 8.5 km/h 60 % 0 mm
12:04 -10.1 °C -14.3 °C 34462.7 hPa West 9 km/h 9 km/h 60 % 0 mm
12:09 -10.1 °C -14.3 °C 34462.7 hPa NNW 6 km/h 6 km/h 60 % 0 mm
12:14 -10 °C -14.3 °C 34462.7 hPa ESE 9 km/h 9 km/h 60 % 0 mm
12:19 -9.9 °C -14.2 °C 34496.6 hPa WSW 11.9 km/h 11.9 km/h 60 % 0 mm
12:24 -9.9 °C -14.2 °C 34496.6 hPa SW 9 km/h 9 km/h 60 % 0 mm
12:29 -9.9 °C -14.2 °C 34496.6 hPa East 6.8 km/h 6.8 km/h 60 % 0 mm
12:30 -9.9 °C -14.2 °C 34496.6 hPa East 9 km/h 9 km/h 60 % 0 mm
12:35 -9.9 °C -14.1 °C 34496.6 hPa ESE 6.8 km/h 6.8 km/h 60 % 0 mm
12:40 -9.9 °C -14.1 °C 34496.6 hPa West 14.5 km/h 14.5 km/h 60 % 0 mm
12:45 -9.9 °C -14.1 °C 34496.6 hPa WNW 9 km/h 9 km/h 60 % 0 mm
12:50 -9.8 °C -14.1 °C 34496.6 hPa WSW 6 km/h 6 km/h 60 % 0 mm
12:52 -9.8 °C -14.1 °C 34496.6 hPa WSW 9 km/h 9.3 km/h 60 % 0 mm
12:57 -9.9 °C -14 °C 34496.6 hPa West 11.9 km/h 11.9 km/h 61 % 0 mm
13:02 -9.9 °C -14 °C 34496.6 hPa SSW 9 km/h 9 km/h 61 % 0 mm
13:07 -9.9 °C -14 °C 34496.6 hPa West 9 km/h 9 km/h 61 % 0 mm
13:12 -9.8 °C -13.9 °C 34496.6 hPa SW 7.6 km/h 7.6 km/h 61 % 0 mm
13:17 -9.6 °C -13.7 °C 34496.6 hPa WSW 9 km/h 9 km/h 61 % 0 mm
13:22 -9.4 °C -13.6 °C 34496.6 hPa WSW 9.8 km/h 9.8 km/h 61 % 0 mm
13:27 -9.2 °C -13.4 °C 34496.6 hPa WNW 12.2 km/h 12.2 km/h 61 % 0 mm
13:32 -9.1 °C -13.4 °C 34496.6 hPa West 11.1 km/h 11.1 km/h 60 % 0 mm
13:37 -9 °C -13.3 °C 34496.6 hPa WNW 9 km/h 9 km/h 60 % 0 mm
13:42 -9.1 °C -13.4 °C 34496.6 hPa WSW 11.9 km/h 11.9 km/h 60 % 0 mm
13:47 -9.1 °C -13.6 °C 34462.7 hPa WNW 11.9 km/h 11.9 km/h 59 % 0 mm
13:52 -9.2 °C -13.6 °C 34462.7 hPa West 15 km/h 15 km/h 59 % 0 mm
13:57 -9.2 °C -13.6 °C 34462.7 hPa SW 6 km/h 6.3 km/h 59 % 0 mm
14:02 -9.1 °C -13.6 °C 34462.7 hPa SW 7.6 km/h 7.6 km/h 59 % 0 mm
14:07 -9.1 °C -13.6 °C 34462.7 hPa West 9 km/h 9 km/h 59 % 0 mm
14:12 -9.1 °C -13.6 °C 34462.7 hPa West 6.8 km/h 6.8 km/h 59 % 0 mm
14:17 -9.2 °C -13.6 °C 34462.7 hPa WSW 3.7 km/h 3.7 km/h 59 % 0 mm
14:22 -9.1 °C -13.6 °C 34462.7 hPa SW 6 km/h 6 km/h 59 % 0 mm
14:27 -9.1 °C -13.5 °C 34462.7 hPa SW 6.3 km/h 6.3 km/h 59 % 0 mm
14:28 -9.1 °C -13.5 °C 34462.7 hPa SW 8 km/h 8 km/h 59 % 0 mm
14:33 -9.1 °C -13.5 °C 34462.7 hPa NW 6 km/h 6 km/h 59 % 0 mm
14:38 -9.1 °C -13.6 °C 34462.7 hPa NW 3.7 km/h   59 % 0 mm
14:43 -9.1 °C -13.6 °C 34462.7 hPa North 6 km/h 6 km/h 59 % 0 mm
14:48 -9.1 °C -13.5 °C 34462.7 hPa ENE 6 km/h 6 km/h 59 % 0 mm
14:53 -9.1 °C -13.5 °C 34462.7 hPa ESE 9.3 km/h 9.3 km/h 59 % 0 mm
14:58 -9.1 °C -13.7 °C 34462.7 hPa NE 3.1 km/h   58 % 0 mm
15:03 -9.1 °C -13.7 °C 34496.6 hPa SE 6 km/h 6 km/h 58 % 0 mm
15:08 -9.1 °C -13.7 °C 34496.6 hPa East 6 km/h 6.3 km/h 58 % 0 mm
15:13 -9.1 °C -13.7 °C 34496.6 hPa East 6 km/h 6 km/h 58 % 0 mm
15:18 -9.2 °C -13.7 °C 34496.6 hPa ESE 6.8 km/h 6.8 km/h 58 % 0 mm
15:23 -9.2 °C -13.8 °C 34496.6 hPa ESE 3.1 km/h 3.1 km/h 58 % 0 mm
15:28 -9.1 °C -13.7 °C 34496.6 hPa Calm     58 % 0 mm
15:33 -9.1 °C -13.7 °C 34496.6 hPa Calm     58 % 0 mm
15:38 -8.9 °C -13.5 °C 34496.6 hPa Calm     58 % 0 mm
15:43 -8.9 °C -13.5 °C 34496.6 hPa SSE 6 km/h 6 km/h 58 % 0 mm
15:46 -8.8 °C -13.4 °C 34496.6 hPa SSE 3.1 km/h   58 % 0 mm
15:51 -8.7 °C -13.3 °C 34496.6 hPa ESE 6 km/h 6 km/h 58 % 0 mm
15:56 -8.9 °C -13.6 °C 34496.6 hPa ENE 9 km/h 9 km/h 57 % 0 mm
16:01 -8.9 °C -13.6 °C 34496.6 hPa ENE 9 km/h 9 km/h 57 % 0 mm
16:06 -8.9 °C -13.5 °C 34496.6 hPa ESE 6 km/h 6 km/h 58 % 0 mm
16:11 -8.9 °C -13.6 °C 34496.6 hPa ESE 9 km/h 9 km/h 57 % 0 mm
16:16 -8.9 °C -13.5 °C 34533.8 hPa East 6 km/h 6 km/h 58 % 0 mm
16:21 -9 °C -13.6 °C 34533.8 hPa East 6.8 km/h 6.8 km/h 58 % 0 mm
16:26 -9.1 °C -13.7 °C 34533.8 hPa SE 6 km/h 6 km/h 58 % 0 mm
16:31 -9.1 °C -13.7 °C 34533.8 hPa ESE 11.9 km/h 11.9 km/h 58 % 0 mm
16:36 -9.1 °C -13.8 °C 34533.8 hPa ESE 9 km/h 9 km/h 57 % 0 mm
16:41 -9.1 °C -13.8 °C 34533.8 hPa SE 6 km/h 6.3 km/h 57 % 0 mm
16:46 -9.2 °C -13.9 °C 34533.8 hPa ESE 9.8 km/h 9.8 km/h 57 % 0 mm
16:51 -9.3 °C -14.1 °C 34533.8 hPa East 15 km/h 15 km/h 57 % 0 mm
16:56 -9.4 °C -14 °C 34533.8 hPa ENE 9.3 km/h 9.3 km/h 58 % 0 mm
17:01 -9.5 °C -14.1 °C 34533.8 hPa ENE 11.9 km/h 11.9 km/h 58 % 0 mm
17:06 -9.6 °C -14 °C 34533.8 hPa NNE 11.9 km/h 11.9 km/h 59 % 0 mm
17:11 -9.7 °C -14 °C 34533.8 hPa ESE 11.9 km/h 11.9 km/h 60 % 0 mm
17:16 -9.8 °C -13.9 °C 34533.8 hPa NNE 11.9 km/h 11.9 km/h 61 % 0 mm
17:21 -9.8 °C -13.9 °C 34533.8 hPa NW 5.1 km/h 5.1 km/h 61 % 0 mm
17:26 -9.9 °C -14 °C 34533.8 hPa NNW 11.9 km/h 11.9 km/h 61 % 0 mm
17:31 -9.8 °C -13.8 °C 34533.8 hPa East 11.9 km/h 11.9 km/h 62 % 0 mm
17:36 -9.7 °C -13.7 °C 34533.8 hPa ENE 15 km/h 15 km/h 62 % 0 mm
17:41 -9.8 °C -13.8 °C 34533.8 hPa NE 6 km/h   62 % 0 mm
17:46 -9.9 °C -13.7 °C 34533.8 hPa East 9 km/h 9 km/h 63 % 0 mm
17:51 -9.9 °C -13.9 °C 34533.8 hPa WNW 6 km/h 6 km/h 62 % 0 mm
17:56 -10 °C -13.8 °C 34533.8 hPa North 3.1 km/h 3.1 km/h 63 % 0 mm
18:01 -10 °C -13.8 °C 34533.8 hPa NW 6 km/h 6 km/h 63 % 0 mm
18:06 -10.1 °C -13.9 °C 34533.8 hPa NNE 3.1 km/h 3.1 km/h 63 % 0 mm
18:11 -10.2 °C -13.9 °C 34533.8 hPa ENE 3.1 km/h 3.1 km/h 64 % 0 mm
18:16 -10.3 °C -14.1 °C 34567.7 hPa SW 6 km/h 6 km/h 64 % 0 mm
18:21 -10.5 °C -14.2 °C 34567.7 hPa WSW 6 km/h 6.8 km/h 64 % 0 mm
18:25 -13.3 °C -18.8 °C 34635.4 hPa SW 2.6 km/h 5.1 km/h 50 % 0 mm
18:26 -10.6 °C -14.3 °C 34567.7 hPa West 3.7 km/h 3.7 km/h 64 % 0 mm
18:31 -10.6 °C -14.1 °C 34601.5 hPa West 3.1 km/h 3.1 km/h 65 % 0 mm
18:33 -10.6 °C -14.1 °C 34601.5 hPa West 4.2 km/h 4.2 km/h 65 % 0 mm
18:35 -13.5 °C -18.9 °C 34669.3 hPa Calm     50 % 0 mm
18:43 -10.6 °C -14.1 °C 34601.5 hPa West 6 km/h 6 km/h 65 % 0 mm
18:45 -13.6 °C -19 °C 34669.3 hPa Calm   5.1 km/h 50 % 0 mm
18:48 -10.6 °C -14.2 °C 34601.5 hPa WNW 6.3 km/h 6.3 km/h 65 % 0 mm
18:53 -10.6 °C -14.1 °C 34601.5 hPa WNW 6 km/h 6 km/h 65 % 0 mm
18:55 -13.5 °C -18.9 °C 34703.1 hPa Calm   7.7 km/h 50 % 0 mm
18:58 -10.5 °C -14.1 °C 34601.5 hPa West 6.8 km/h 6.8 km/h 65 % 0 mm
19:03 -10.5 °C -13.9 °C 34601.5 hPa WSW 3.1 km/h 3.1 km/h 66 % 0 mm
19:05 -13.6 °C -19 °C 34669.3 hPa WSW 2.6 km/h 5.1 km/h 50 % 0 mm
19:08 -10.6 °C -14 °C 34601.5 hPa West 3.1 km/h   66 % 0 mm
19:13 -10.6 °C -14 °C 34601.5 hPa SW 3.1 km/h   66 % 0 mm
19:15 -13.7 °C -19.1 °C 34669.3 hPa WSW 2.6 km/h 5.1 km/h 50 % 0 mm
19:18 -10.6 °C -14 °C 34601.5 hPa South 4.2 km/h   66 % 0 mm
19:23 -10.6 °C -14.2 °C 34601.5 hPa SW 6 km/h 6 km/h 65 % 0 mm
19:25 -13.7 °C -19.1 °C 34703.1 hPa WSW 2.6 km/h 5.1 km/h 50 % 0 mm
19:28 -10.6 °C -14.2 °C 34601.5 hPa SW 6 km/h 6 km/h 65 % 0 mm
19:33 -10.6 °C -14.2 °C 34601.5 hPa WSW 11.1 km/h 11.1 km/h 65 % 0 mm
19:35 -13.7 °C -19.1 °C 34669.3 hPa WSW 5.1 km/h 5.1 km/h 50 % 0 mm
19:38 -10.6 °C -14.1 °C 34601.5 hPa WSW 9 km/h 9 km/h 65 % 0 mm
19:43 -10.6 °C -14.1 °C 34601.5 hPa SSW 6.3 km/h 6.3 km/h 65 % 0 mm
19:45 -13.7 °C -19.1 °C 34669.3 hPa Calm   5.1 km/h 50 % 0 mm
19:48 -10.5 °C -14.1 °C 34601.5 hPa SW 9 km/h 9 km/h 65 % 0 mm
19:53 -10.5 °C -14.1 °C 34601.5 hPa West 11.9 km/h 11.9 km/h 65 % 0 mm
19:55 -13.8 °C -19.2 °C 34669.3 hPa Calm   5.1 km/h 50 % 0 mm
19:58 -10.6 °C -14.3 °C 34601.5 hPa West 6 km/h 6 km/h 64 % 0 mm
20:05 -13.8 °C -19.2 °C 34703.1 hPa WSW 2.6 km/h 2.6 km/h 50 % 0 mm
20:08 -10.6 °C -14.6 °C 34601.5 hPa SW 3.1 km/h   62 % 0 mm
20:13 -10.7 °C -14.8 °C 34601.5 hPa West 11.9 km/h 11.9 km/h 61 % 0 mm
20:15 -13.8 °C -19.2 °C 34703.1 hPa Calm   2.6 km/h 50 % 0 mm
20:18 -10.7 °C -14.9 °C 34635.4 hPa West 14 km/h 14 km/h 60 % 0 mm
20:23 -10.7 °C -15.3 °C 34635.4 hPa WSW 15 km/h 15 km/h 57 % 0 mm
20:25 -13.8 °C -19.2 °C 34703.1 hPa Calm   5.1 km/h 50 % 0 mm
20:28 -10.7 °C -15.6 °C 34635.4 hPa West 17.9 km/h 17.9 km/h 55 % 0 mm
20:33 -10.8 °C -15.7 °C 34635.4 hPa WSW 11.9 km/h 11.9 km/h 55 % 0 mm
20:35 -13.9 °C -19.3 °C 34740.4 hPa West 2.6 km/h 5.1 km/h 50 % 0 mm
20:38 -10.9 °C -16 °C 34635.4 hPa SW 9 km/h 9 km/h 54 % 0 mm
20:43 -10.9 °C -15.9 °C 34635.4 hPa West 19.2 km/h 19.2 km/h 54 % 0 mm
20:45 -13.9 °C -19.3 °C 34740.4 hPa Calm   5.1 km/h 50 % 0 mm
20:48 -10.8 °C -16 °C 34601.5 hPa NW 15 km/h 15 km/h 53 % 0 mm
20:53 -10.9 °C -16.2 °C 34601.5 hPa WSW 17.9 km/h 17.9 km/h 52 % 0 mm
20:55 -13.9 °C -19.3 °C 34703.1 hPa Calm   5.1 km/h 50 % 0 mm
20:58 -10.9 °C -16.3 °C 34601.5 hPa West 9 km/h 10.3 km/h 52 % 0 mm
21:03 -11 °C -16.3 °C 34635.4 hPa West 15 km/h 15 km/h 52 % 0 mm
21:05 -13.9 °C -19.3 °C 34740.4 hPa Calm   5.1 km/h 50 % 0 mm
21:08 -11 °C -16.3 °C 34635.4 hPa West 15 km/h 15 km/h 52 % 0 mm
21:13 -11.1 °C -16.5 °C 34635.4 hPa WSW 15 km/h 15 km/h 51 % 0 mm
21:15 -13.9 °C -19.3 °C 34740.4 hPa West 2.6 km/h 7.7 km/h 50 % 0 mm
21:18 -11.1 °C -16.6 °C 34635.4 hPa NNW 15 km/h 15 km/h 51 % 0 mm
21:23 -11.2 °C -16.6 °C 34635.4 hPa SW 15 km/h 15 km/h 51 % 0 mm
21:25 -13.9 °C -19.3 °C 34740.4 hPa Calm   5.1 km/h 50 % 0 mm
21:29 -11.3 °C -16.7 °C 34635.4 hPa West 15 km/h 15 km/h 51 % 0 mm
21:30 -11.3 °C -16.7 °C 34635.4 hPa WSW 35.7 km/h 35.7 km/h 51 % 0 mm
21:35 -11.3 °C -16.9 °C 34635.4 hPa WNW 11.9 km/h 11.9 km/h 50 % 0 mm
21:40 -11.4 °C -16.8 °C 34635.4 hPa West 12.2 km/h 12.2 km/h 51 % 0 mm
21:45 -11.4 °C -17.1 °C 34635.4 hPa West 9 km/h 9.3 km/h 50 % 0 mm
21:50 -11.5 °C -17.1 °C 34635.4 hPa SSW 23.8 km/h 23.8 km/h 50 % 0 mm
21:55 -11.6 °C -17.1 °C 34635.4 hPa WSW 20.9 km/h 20.9 km/h 50 % 0 mm
22:00 -11.6 °C -17.2 °C 34635.4 hPa West 11.9 km/h 11.9 km/h 50 % 0 mm
22:05 -11.6 °C -17.2 °C 34669.3 hPa West 17.9 km/h 17.9 km/h 50 % 0 mm
22:10 -11.7 °C -17.3 °C 34669.3 hPa WSW 17.9 km/h 17.9 km/h 50 % 0 mm
22:15 -11.8 °C -17.5 °C 34669.3 hPa West 15 km/h 15 km/h 49 % 0 mm
22:20 -11.9 °C -17.6 °C 34669.3 hPa SW 9.8 km/h 9.8 km/h 49 % 0 mm
22:25 -11.9 °C -17.7 °C 34669.3 hPa SW 11.9 km/h 11.9 km/h 49 % 0 mm
22:30 -12.1 °C -17.7 °C 34669.3 hPa West 11.9 km/h 11.9 km/h 49 % 0 mm
22:35 -12.1 °C -17.7 °C 34669.3 hPa West 11.9 km/h 11.9 km/h 49 % 0 mm
22:40 -12.1 °C -17.8 °C 34669.3 hPa SW 15.6 km/h 15.6 km/h 49 % 0 mm
22:45 -12.2 °C -17.9 °C 34669.3 hPa SW 9 km/h 9 km/h 49 % 0 mm
22:50 -12.3 °C -17.9 °C 34669.3 hPa SW 9 km/h 9 km/h 49 % 0 mm
22:55 -12.3 °C -18 °C 34669.3 hPa WSW 9 km/h 9 km/h 49 % 0 mm
22:56 -12.3 °C -18 °C 34669.3 hPa WSW 9 km/h 9 km/h 49 % 0 mm
23:01 -12.4 °C -18.1 °C 34635.4 hPa WSW 9 km/h 9 km/h 49 % 0 mm
23:05 -14.7 °C -19.9 °C 34740.4 hPa NW 2.6 km/h 2.6 km/h 51 % 0 mm
23:06 -12.6 °C -18.2 °C 34635.4 hPa SW 3.1 km/h   49 % 0 mm
23:11 -12.6 °C -18.3 °C 34635.4 hPa SW 6 km/h   49 % 0 mm
23:15 -14.8 °C -19.9 °C 34740.4 hPa NNW 2.6 km/h 5.1 km/h 51 % 0 mm
23:16 -12.7 °C -18.3 °C 34669.3 hPa WNW 4.2 km/h 4.2 km/h 49 % 0 mm
23:21 -12.7 °C -18.4 °C 34669.3 hPa SSW 6 km/h 6 km/h 49 % 0 mm
23:25 -14.7 °C -19.9 °C 34740.4 hPa North 2.6 km/h 10.3 km/h 51 % 0 mm
23:26 -12.8 °C -18.4 °C 34669.3 hPa West 6 km/h 6 km/h 49 % 0 mm
23:31 -12.8 °C -18.5 °C 34669.3 hPa West 6.3 km/h 6.3 km/h 49 % 0 mm
23:35 -14.7 °C -19.8 °C 34740.4 hPa NNE 2.6 km/h 7.7 km/h 52 % 0 mm
23:36 -12.9 °C -18.6 °C 34669.3 hPa WSW 6 km/h 6 km/h 49 % 0 mm
23:41 -13 °C -18.6 °C 34669.3 hPa WSW 6.3 km/h 6.3 km/h 49 % 0 mm
23:45 -14.8 °C -19.8 °C 34740.4 hPa NNE 2.6 km/h 5.1 km/h 52 % 0 mm
23:46 -13 °C -18.5 °C 34669.3 hPa WSW 9 km/h 9 km/h 50 % 0 mm
23:51 -13 °C -18.5 °C 34669.3 hPa West 3.1 km/h   50 % 0 mm
23:55 -14.8 °C -19.9 °C 34740.4 hPa North 2.6 km/h 12.9 km/h 52 % 0 mm
23:56 -13.1 °C -18.6 °C 34669.3 hPa SW 6 km/h 6 km/h 50 % 0 mm
Meteo Sesrovires
Elogis d' Weather Underground - 1.5 mb

Guio original per  Jim McMurry - jmcmurry@mwt.net Adaptat per a la plantilla per  Wim van der Kuil - Leuven-Template.eu

Trobareu la nostra informacio del temps tambe a:

Weather Underground

AWEKAS